Terminal Aerodrome Forecast
Issued by NWS Pittsburgh, PA

Current Version | Previous Version | Graphics & Text | Print | Product List | Glossary On
Versions: 1 2 3 4 5 6 7 8 9 10 11 12 13 14 15 16 17 18 19 20 21 22 23 24 25 26 27 28 29 30 31 32 33 34
392
FTUS41 KPBZ 251120
TAFPIT
TAF
KPIT 251120Z 2512/2618 21010KT P6SM -SHRA SCT015 OVC035
      TEMPO 2512/2513 BKN015
     FM251300 26012G22KT 5SM -SHRA OVC020
     FM251500 27015G25KT P6SM VCSH OVC020
     FM251800 28015G25KT P6SM BKN035
     FM261200 27012KT P6SM BKN035=

USA.gov is the U.S. government's official web portal to all federal, state and local government web resources and services.